createdAt,value
2018-02-14T00:00:11.488Z,68.53
2018-02-14T00:02:40.668Z,71.53
2018-02-14T00:05:09.808Z,75.47
2018-02-14T00:07:38.950Z,73.80
2018-02-14T00:10:08.094Z,72.47
2018-02-14T00:12:37.240Z,79.47
2018-02-14T00:15:06.400Z,77.13
2018-02-14T00:17:35.559Z,73.00
2018-02-14T00:20:04.704Z,68.93
2018-02-14T00:22:33.864Z,71.20
2018-02-14T00:25:03.012Z,71.57
2018-02-14T00:27:32.153Z,71.20
2018-02-14T00:30:01.335Z,69.17
2018-02-14T00:32:30.512Z,67.73
2018-02-14T00:34:59.673Z,71.93
2018-02-14T00:37:28.962Z,72.70
2018-02-14T00:39:58.098Z,64.10
2018-02-14T00:42:27.229Z,69.50
2018-02-14T00:44:56.380Z,67.50
2018-02-14T00:47:25.525Z,72.73
2018-02-14T00:49:54.656Z,70.40
2018-02-14T00:52:23.838Z,67.67
2018-02-14T00:54:54.198Z,64.73
2018-02-14T00:57:23.333Z,66.97
2018-02-14T00:59:52.591Z,66.17
2018-02-14T01:02:21.761Z,71.47
2018-02-14T01:04:50.912Z,70.40
2018-02-14T01:07:20.107Z,68.13
2018-02-14T01:09:49.246Z,69.60
2018-02-14T01:12:18.401Z,69.30
2018-02-14T01:14:47.572Z,66.90
2018-02-14T01:17:16.724Z,64.87
2018-02-14T01:19:45.861Z,67.13
2018-02-14T01:22:15.058Z,62.07
2018-02-14T01:24:44.214Z,67.43
2018-02-14T01:27:13.382Z,62.77
2018-02-14T01:29:42.561Z,60.90
2018-02-14T01:32:11.705Z,61.97
2018-02-14T01:34:40.856Z,59.80
2018-02-14T01:37:10.074Z,62.13
2018-02-14T01:39:39.212Z,62.37
2018-02-14T01:42:08.345Z,60.97
2018-02-14T01:44:37.543Z,58.17
2018-02-14T01:47:06.680Z,59.37
2018-02-14T01:49:35.828Z,61.07
2018-02-14T01:52:05.004Z,57.63
2018-02-14T01:54:34.132Z,59.67
2018-02-14T01:57:03.282Z,55.93
2018-02-14T01:59:32.461Z,59.17
2018-02-14T02:02:01.613Z,62.13
2018-02-14T02:04:30.908Z,60.40
2018-02-14T02:07:00.142Z,60.17
2018-02-14T02:09:29.303Z,57.60
2018-02-14T02:11:58.450Z,62.77
2018-02-14T02:14:27.609Z,56.10
2018-02-14T02:16:56.753Z,56.17
2018-02-14T02:19:25.896Z,60.27
2018-02-14T02:21:55.052Z,63.43
2018-02-14T02:24:24.200Z,58.33
2018-02-14T02:26:53.343Z,59.83
2018-02-14T02:29:22.522Z,62.13
2018-02-14T02:31:51.729Z,58.87
2018-02-14T02:34:20.873Z,56.23
2018-02-14T02:36:50.437Z,58.37
2018-02-14T02:39:25.515Z,60.50
2018-02-14T02:41:54.672Z,57.57
2018-02-14T02:44:23.805Z,62.17
2018-02-14T02:46:52.949Z,56.63
2018-02-14T02:49:22.122Z,57.13
2018-02-14T02:51:51.286Z,58.33
2018-02-14T02:54:20.432Z,54.57
2018-02-14T02:56:49.583Z,57.60
2018-02-14T02:59:18.759Z,56.10
2018-02-14T03:01:47.892Z,55.80
2018-02-14T03:04:17.030Z,57.23
2018-02-14T03:06:46.419Z,62.40
2018-02-14T03:09:15.561Z,57.77
2018-02-14T03:11:44.710Z,54.10
2018-02-14T03:14:13.894Z,59.37
2018-02-14T03:16:43.033Z,55.43
2018-02-14T03:19:12.197Z,54.97
2018-02-14T03:21:41.337Z,61.90
2018-02-14T03:24:10.513Z,60.27
2018-02-14T03:26:39.661Z,60.20
2018-02-14T03:29:08.802Z,63.30
2018-02-14T03:31:37.981Z,59.27
2018-02-14T03:34:07.123Z,65.93
2018-02-14T03:36:36.256Z,60.90
2018-02-14T03:39:05.432Z,66.13
2018-02-14T03:41:34.672Z,63.53
2018-02-14T03:44:03.769Z,63.30
2018-02-14T03:46:32.908Z,59.23
2018-02-14T03:49:02.408Z,61.17
2018-02-14T03:51:31.549Z,64.70
2018-02-14T03:54:00.701Z,67.87
2018-02-14T03:56:29.874Z,66.20
2018-02-14T03:58:59.022Z,66.70
2018-02-14T04:01:28.168Z,65.80
2018-02-14T04:03:57.305Z,70.10
2018-02-14T04:06:26.483Z,64.60
2018-02-14T04:08:56.158Z,65.20
2018-02-14T04:11:25.298Z,67.47
2018-02-14T04:13:54.462Z,68.50
2018-02-14T04:16:23.611Z,64.37
2018-02-14T04:18:52.740Z,65.70
2018-02-14T04:21:21.920Z,66.23
2018-02-14T04:23:51.065Z,65.40
2018-02-14T04:26:20.202Z,72.83
2018-02-14T04:28:49.388Z,68.60
2018-02-14T04:31:18.537Z,70.97
2018-02-14T04:33:47.692Z,66.70
2018-02-14T04:36:16.881Z,64.33
2018-02-14T04:38:46.038Z,65.27
2018-02-14T04:41:15.206Z,70.80
2018-02-14T04:43:44.361Z,67.70
2018-02-14T04:46:13.561Z,66.67
2018-02-14T04:48:42.737Z,69.87
2018-02-14T04:51:11.889Z,70.37
2018-02-14T04:53:41.038Z,68.20
2018-02-14T04:56:10.206Z,70.67
2018-02-14T04:58:39.370Z,66.77
2018-02-14T05:01:08.505Z,67.03
2018-02-14T05:03:37.657Z,68.47
2018-02-14T05:06:06.819Z,67.57
2018-02-14T05:08:35.954Z,69.10
2018-02-14T05:11:05.345Z,73.50
2018-02-14T05:13:34.525Z,66.70
2018-02-14T05:16:03.685Z,63.37
2018-02-14T05:18:32.820Z,66.80
2018-02-14T05:21:01.994Z,65.93
2018-02-14T05:23:31.122Z,70.30
2018-02-14T05:26:00.287Z,68.63
2018-02-14T05:28:29.458Z,65.00
2018-02-14T05:30:58.603Z,62.17
2018-02-14T05:33:27.801Z,60.13
2018-02-14T05:35:56.945Z,62.50
2018-02-14T05:38:26.084Z,60.30
2018-02-14T05:40:55.258Z,62.33
2018-02-14T05:43:24.394Z,60.47
2018-02-14T05:45:53.546Z,60.03
2018-02-14T05:48:22.733Z,60.30
2018-02-14T05:50:51.893Z,59.53
2018-02-14T05:53:21.034Z,60.77
2018-02-14T05:55:50.208Z,60.17
2018-02-14T05:58:19.400Z,59.43
2018-02-14T06:00:48.540Z,62.30
2018-02-14T06:03:17.727Z,59.80
2018-02-14T06:05:46.883Z,57.50
2018-02-14T06:08:16.409Z,55.57
2018-02-14T06:10:45.586Z,54.10
2018-02-14T06:13:15.298Z,53.77
2018-02-14T06:15:44.468Z,54.60
2018-02-14T06:18:14.230Z,54.70
2018-02-14T06:20:43.406Z,56.60
2018-02-14T06:23:12.614Z,60.87
2018-02-14T06:25:41.758Z,59.20
2018-02-14T06:28:10.945Z,57.93
2018-02-14T06:30:40.081Z,60.50
2018-02-14T06:33:09.286Z,57.17
2018-02-14T06:35:38.454Z,59.50
2018-02-14T06:38:07.649Z,56.10
2018-02-14T06:40:36.819Z,54.17
2018-02-14T06:43:05.961Z,60.53
2018-02-14T06:45:35.132Z,55.60
2018-02-14T06:48:04.259Z,53.10
2018-02-14T06:50:33.413Z,52.30
2018-02-14T06:53:02.877Z,53.73
2018-02-14T06:55:32.007Z,53.50
2018-02-14T06:58:01.153Z,55.40
2018-02-14T07:00:30.337Z,50.30
2018-02-14T07:02:59.486Z,55.70
2018-02-14T07:05:28.659Z,44.20
2018-02-14T07:07:57.801Z,40.93
2018-02-14T07:10:26.962Z,40.20
2018-02-14T07:12:56.145Z,37.53
2018-02-14T07:15:25.529Z,37.83
2018-02-14T07:17:54.681Z,37.80
2018-02-14T07:20:23.867Z,35.93
2018-02-14T07:22:53.025Z,37.07
2018-02-14T07:25:22.184Z,34.20
2018-02-14T07:27:51.350Z,32.93
2018-02-14T07:30:20.524Z,34.83
2018-02-14T07:32:49.730Z,33.50
2018-02-14T07:35:18.931Z,33.57
2018-02-14T07:37:48.079Z,32.30
2018-02-14T07:40:17.220Z,31.83
2018-02-14T07:42:46.416Z,32.60
2018-02-14T07:45:15.573Z,31.97
2018-02-14T07:47:44.708Z,32.27
2018-02-14T07:50:13.885Z,32.67
2018-02-14T07:52:43.076Z,31.00
2018-02-14T07:55:12.232Z,33.17
2018-02-14T07:57:41.412Z,34.87
2018-02-14T08:00:10.601Z,35.97
2018-02-14T08:02:39.758Z,36.83
2018-02-14T08:05:09.065Z,36.70
2018-02-14T08:07:38.222Z,37.73
2018-02-14T08:10:07.395Z,35.10
2018-02-14T08:12:36.602Z,34.00
2018-02-14T08:15:05.781Z,39.20
2018-02-14T08:17:34.926Z,32.77
2018-02-14T08:20:04.081Z,36.77
2018-02-14T08:22:33.238Z,44.93
2018-02-14T08:25:02.392Z,40.43
2018-02-14T08:27:31.545Z,41.10
2018-02-14T08:30:00.700Z,37.90
2018-02-14T08:32:29.853Z,38.30
2018-02-14T08:34:59.005Z,36.80
2018-02-14T08:37:28.171Z,35.80
2018-02-14T08:39:57.312Z,32.10
2018-02-14T08:42:26.458Z,31.77
2018-02-14T08:44:55.671Z,29.50
2018-02-14T08:47:24.825Z,36.63
2018-02-14T08:49:54.075Z,31.17
2018-02-14T08:52:23.243Z,33.57
2018-02-14T08:54:52.393Z,35.67
2018-02-14T08:57:21.536Z,32.03
2018-02-14T08:59:50.712Z,30.80
2018-02-14T09:02:19.862Z,31.43
2018-02-14T09:04:49.006Z,33.73
2018-02-14T09:07:18.209Z,32.70
2018-02-14T09:09:47.351Z,29.37
2018-02-14T09:12:16.515Z,30.90
2018-02-14T09:14:45.670Z,31.67
2018-02-14T09:17:14.824Z,30.13
2018-02-14T09:19:44.016Z,31.10
2018-02-14T09:22:13.164Z,30.40
2018-02-14T09:24:42.364Z,28.90
2018-02-14T09:27:11.541Z,30.50
2018-02-14T09:29:40.674Z,29.07
2018-02-14T09:32:09.872Z,31.87
2018-02-14T09:34:39.005Z,36.17
2018-02-14T09:37:08.188Z,34.33
2018-02-14T09:39:37.371Z,34.10
2018-02-14T09:42:06.505Z,29.43
2018-02-14T09:44:35.659Z,30.77
2018-02-14T09:47:04.882Z,30.07
2018-02-14T09:49:34.037Z,28.37
2018-02-14T09:52:03.183Z,27.00
2018-02-14T09:54:33.148Z,28.00
2018-02-14T09:57:02.296Z,35.23
2018-02-14T09:59:31.433Z,26.97
2018-02-14T10:02:00.615Z,27.33
2018-02-14T10:04:29.790Z,27.13
2018-02-14T10:06:58.940Z,26.70
2018-02-14T10:09:28.098Z,26.27
2018-02-14T10:11:57.305Z,29.00
2018-02-14T10:14:26.404Z,29.20
2018-02-14T10:16:55.541Z,26.67
2018-02-14T10:19:24.721Z,25.60
2018-02-14T10:21:53.862Z,26.00
2018-02-14T10:24:22.998Z,24.97
2018-02-14T10:26:52.166Z,39.50
2018-02-14T10:29:21.315Z,31.60
2018-02-14T10:31:50.440Z,29.43
2018-02-14T10:34:19.629Z,45.27
2018-02-14T10:36:48.773Z,27.40
2018-02-14T10:39:17.922Z,25.27
2018-02-14T10:41:47.100Z,25.93
2018-02-14T10:44:16.242Z,26.47
2018-02-14T10:46:45.397Z,23.87
2018-02-14T10:49:14.586Z,23.10
2018-02-14T10:51:43.723Z,25.90
2018-02-14T10:54:12.926Z,22.57
2018-02-14T10:56:42.456Z,24.70
2018-02-14T10:59:11.601Z,24.17
2018-02-14T11:01:46.485Z,25.13
2018-02-14T11:04:21.258Z,32.80
2018-02-14T11:06:50.537Z,23.60
2018-02-14T11:09:19.672Z,24.77
2018-02-14T11:11:48.854Z,23.93
2018-02-14T11:14:17.997Z,23.77
2018-02-14T11:16:47.131Z,23.80
2018-02-14T11:19:16.296Z,23.77
2018-02-14T11:21:45.429Z,22.57
2018-02-14T11:24:14.566Z,23.63
2018-02-14T11:26:43.730Z,21.90
2018-02-14T11:29:12.882Z,24.00
2018-02-14T11:31:42.070Z,22.03
2018-02-14T11:34:11.264Z,20.60
2018-02-14T11:36:40.411Z,20.80
2018-02-14T11:39:09.583Z,21.03
2018-02-14T11:41:38.730Z,24.27
2018-02-14T11:44:07.918Z,20.73
2018-02-14T11:46:37.067Z,22.07
2018-02-14T11:49:06.204Z,21.20
2018-02-14T11:51:35.402Z,20.07
2018-02-14T11:54:04.541Z,19.60
2018-02-14T11:56:33.689Z,21.10
2018-02-14T11:59:02.878Z,21.30
2018-02-14T12:01:32.018Z,18.80
2018-02-14T12:04:01.201Z,22.17
2018-02-14T12:06:30.335Z,25.60
2018-02-14T12:08:59.493Z,19.40
2018-02-14T12:11:28.958Z,22.30
2018-02-14T12:13:58.114Z,19.73
2018-02-14T12:16:27.257Z,20.60
2018-02-14T12:18:56.438Z,19.97
2018-02-14T12:21:25.584Z,17.57
2018-02-14T12:23:54.818Z,18.50
2018-02-14T12:26:23.973Z,18.03
2018-02-14T12:28:53.113Z,18.00
2018-02-14T12:31:22.249Z,18.20
2018-02-14T12:33:51.426Z,16.40
2018-02-14T12:36:20.573Z,16.80
2018-02-14T12:38:49.746Z,16.30
2018-02-14T12:41:18.920Z,16.70
2018-02-14T12:43:48.065Z,16.57
2018-02-14T12:46:17.198Z,17.00
2018-02-14T12:48:46.366Z,23.53
2018-02-14T12:51:15.547Z,16.80
2018-02-14T12:53:44.698Z,17.00
2018-02-14T12:56:13.867Z,17.20
2018-02-14T12:58:43.050Z,16.20
2018-02-14T13:01:12.259Z,16.73
2018-02-14T13:03:41.378Z,16.63
2018-02-14T13:06:10.527Z,17.27
2018-02-14T13:08:39.706Z,16.07
2018-02-14T13:11:08.842Z,17.97
2018-02-14T13:13:38.018Z,17.07
2018-02-14T13:16:07.170Z,16.10
2018-02-14T13:18:36.310Z,16.70
2018-02-14T13:21:05.523Z,16.47
2018-02-14T13:23:34.674Z,15.97
2018-02-14T13:26:03.872Z,17.07
2018-02-14T13:28:33.012Z,16.27
2018-02-14T13:31:02.177Z,16.07
2018-02-14T13:33:31.350Z,16.37
2018-02-14T13:36:00.485Z,14.57
2018-02-14T13:38:29.642Z,14.80
2018-02-14T13:40:58.858Z,16.20
2018-02-14T13:43:27.997Z,15.20
2018-02-14T13:45:57.140Z,15.30
2018-02-14T13:48:26.320Z,15.50
2018-02-14T13:50:55.451Z,15.13
2018-02-14T13:53:24.581Z,14.03
2018-02-14T13:55:54.120Z,15.63
2018-02-14T13:58:23.273Z,15.07
2018-02-14T14:00:52.402Z,15.00
2018-02-14T14:03:21.577Z,14.30
2018-02-14T14:05:50.886Z,15.23
2018-02-14T14:08:20.012Z,15.10
2018-02-14T14:10:49.183Z,15.40
2018-02-14T14:13:18.340Z,15.23
2018-02-14T14:15:47.483Z,15.40
2018-02-14T14:18:16.641Z,15.47
2018-02-14T14:20:45.778Z,14.93
2018-02-14T14:23:14.938Z,15.60
2018-02-14T14:25:44.111Z,15.97
2018-02-14T14:28:13.245Z,17.03
2018-02-14T14:30:42.390Z,15.80
2018-02-14T14:33:11.537Z,15.60
2018-02-14T14:35:40.660Z,16.10
2018-02-14T14:38:09.831Z,16.30
2018-02-14T14:40:38.969Z,16.53
2018-02-14T14:43:08.130Z,16.80
2018-02-14T14:45:37.262Z,17.20
2018-02-14T14:48:06.395Z,17.17
2018-02-14T14:50:35.585Z,16.43
2018-02-14T14:53:04.730Z,18.50
2018-02-14T14:55:33.887Z,17.10
2018-02-14T14:58:03.066Z,17.47
2018-02-14T15:00:32.217Z,18.37
2018-02-14T15:03:01.358Z,18.10
2018-02-14T15:05:30.524Z,18.40
2018-02-14T15:07:59.674Z,16.83
2018-02-14T15:10:28.899Z,18.27
2018-02-14T15:12:58.137Z,18.83
2018-02-14T15:15:27.284Z,18.30
2018-02-14T15:17:56.418Z,18.60
2018-02-14T15:20:25.597Z,18.50
2018-02-14T15:22:54.764Z,19.70
2018-02-14T15:25:23.901Z,18.33
2018-02-14T15:27:53.096Z,18.00
2018-02-14T15:30:22.234Z,18.57
2018-02-14T15:32:51.373Z,18.63
2018-02-14T15:35:20.553Z,18.73
2018-02-14T15:37:49.706Z,17.93
2018-02-14T15:40:18.873Z,17.90
2018-02-14T15:42:48.017Z,18.60
2018-02-14T15:45:17.161Z,18.60
2018-02-14T15:47:46.354Z,18.70
2018-02-14T15:50:15.495Z,18.10
2018-02-14T15:52:44.626Z,18.87
2018-02-14T15:55:13.815Z,18.10
2018-02-14T15:57:42.968Z,19.37
2018-02-14T16:00:12.147Z,19.00
2018-02-14T16:02:41.325Z,18.50
2018-02-14T16:05:10.507Z,18.80
2018-02-14T16:07:39.650Z,18.73
2018-02-14T16:10:08.820Z,17.67
2018-02-14T16:12:37.998Z,18.60
2018-02-14T16:15:07.130Z,18.20
2018-02-14T16:17:36.279Z,18.47
2018-02-14T16:20:05.423Z,18.17
2018-02-14T16:22:34.562Z,19.40
2018-02-14T16:25:03.749Z,21.27
2018-02-14T16:27:32.890Z,21.03
2018-02-14T16:30:02.033Z,22.40
2018-02-14T16:32:31.204Z,23.87
2018-02-14T16:35:00.345Z,24.57
2018-02-14T16:37:29.481Z,27.43
2018-02-14T16:39:58.649Z,27.40
2018-02-14T16:42:27.794Z,30.63
2018-02-14T16:44:56.941Z,33.37
2018-02-14T16:47:26.120Z,31.80
2018-02-14T16:49:55.284Z,33.53
2018-02-14T16:52:24.433Z,34.20
2018-02-14T16:54:53.572Z,31.53
2018-02-14T16:57:22.790Z,34.87
2018-02-14T16:59:52.852Z,33.03
2018-02-14T17:02:22.033Z,34.23
2018-02-14T17:04:51.174Z,34.20
2018-02-14T17:07:20.306Z,34.10
2018-02-14T17:09:49.481Z,34.40
2018-02-14T17:12:18.905Z,35.50
2018-02-14T17:14:48.434Z,35.53
2018-02-14T17:17:17.569Z,32.33
2018-02-14T17:19:46.709Z,34.87
2018-02-14T17:22:15.893Z,34.47
2018-02-14T17:24:45.030Z,34.90
2018-02-14T17:27:14.188Z,36.10
2018-02-14T17:29:43.345Z,34.30
2018-02-14T17:32:12.486Z,33.50
2018-02-14T17:34:41.639Z,36.93
2018-02-14T17:37:10.843Z,34.40
2018-02-14T17:39:39.992Z,35.60
2018-02-14T17:42:09.135Z,35.70
2018-02-14T17:44:38.303Z,36.10
2018-02-14T17:47:07.432Z,34.50
2018-02-14T17:49:36.574Z,38.00
2018-02-14T17:52:05.736Z,34.33
2018-02-14T17:54:34.895Z,36.53
2018-02-14T17:57:04.038Z,34.00
2018-02-14T17:59:33.202Z,35.17
2018-02-14T18:02:02.341Z,32.77
2018-02-14T18:04:31.504Z,34.73
2018-02-14T18:07:00.683Z,37.27
2018-02-14T18:09:29.833Z,38.93
2018-02-14T18:11:58.979Z,39.40
2018-02-14T18:14:28.624Z,34.70
2018-02-14T18:16:57.762Z,37.07
2018-02-14T18:19:26.902Z,35.00
2018-02-14T18:21:56.067Z,40.17
2018-02-14T18:24:25.227Z,36.33
2018-02-14T18:26:54.374Z,35.23
2018-02-14T18:29:23.520Z,37.07
2018-02-14T18:31:52.727Z,36.37
2018-02-14T18:34:21.867Z,38.00
2018-02-14T18:36:51.005Z,37.70
2018-02-14T18:39:20.160Z,36.70
2018-02-14T18:41:49.314Z,39.47
2018-02-14T18:44:18.471Z,34.90
2018-02-14T18:46:47.626Z,33.97
2018-02-14T18:49:16.792Z,31.63
2018-02-14T18:51:45.934Z,33.17
2018-02-14T18:54:15.083Z,31.43
2018-02-14T18:56:44.248Z,34.07
2018-02-14T18:59:13.393Z,31.87
2018-02-14T19:01:42.541Z,33.73
2018-02-14T19:04:11.729Z,37.40
2018-02-14T19:06:40.866Z,37.10
2018-02-14T19:09:10.035Z,36.17
2018-02-14T19:11:39.181Z,36.27
2018-02-14T19:14:08.321Z,36.53
2018-02-14T19:16:37.909Z,34.60
2018-02-14T19:19:07.098Z,41.27
2018-02-14T19:21:36.210Z,32.73
2018-02-14T19:24:05.382Z,37.77
2018-02-14T19:26:34.553Z,33.10
2018-02-14T19:29:03.695Z,39.63
2018-02-14T19:31:32.844Z,31.87
2018-02-14T19:34:02.046Z,32.97
2018-02-14T19:36:31.181Z,30.93
2018-02-14T19:39:00.370Z,32.63
2018-02-14T19:41:29.510Z,38.90
2018-02-14T19:43:58.745Z,30.77
2018-02-14T19:46:27.921Z,31.77
2018-02-14T19:48:57.071Z,34.97
2018-02-14T19:51:26.234Z,31.67
2018-02-14T19:53:55.384Z,37.70
2018-02-14T19:56:24.559Z,31.00
2018-02-14T19:58:53.695Z,31.27
2018-02-14T20:01:22.862Z,39.03
2018-02-14T20:03:51.999Z,33.80
2018-02-14T20:06:21.131Z,29.20
2018-02-14T20:08:50.312Z,30.23
2018-02-14T20:11:19.457Z,31.43
2018-02-14T20:13:48.611Z,30.87
2018-02-14T20:16:17.792Z,29.80
2018-02-14T20:18:46.930Z,35.30
2018-02-14T20:21:16.074Z,30.37
2018-02-14T20:23:45.251Z,32.60
2018-02-14T20:26:14.718Z,32.30
2018-02-14T20:28:43.879Z,30.47
2018-02-14T20:31:13.067Z,34.40
2018-02-14T20:33:42.251Z,33.70
2018-02-14T20:36:11.396Z,30.17
2018-02-14T20:38:40.544Z,34.27
2018-02-14T20:41:09.729Z,30.60
2018-02-14T20:43:38.900Z,33.00
2018-02-14T20:46:08.059Z,39.00
2018-02-14T20:48:37.209Z,33.03
2018-02-14T20:51:06.385Z,34.00
2018-02-14T20:53:35.586Z,47.23
2018-02-14T20:56:04.750Z,58.60
2018-02-14T20:58:33.904Z,39.67
2018-02-14T21:01:03.103Z,35.10
2018-02-14T21:03:32.237Z,81.13
2018-02-14T21:06:01.386Z,35.60
2018-02-14T21:08:30.577Z,35.27
2018-02-14T21:10:59.726Z,35.70
2018-02-14T21:13:28.873Z,35.50
2018-02-14T21:15:58.048Z,38.23
2018-02-14T21:18:27.202Z,39.37
2018-02-14T21:20:56.847Z,38.50
2018-02-14T21:23:26.044Z,38.17
2018-02-14T21:25:55.195Z,43.97
2018-02-14T21:28:24.333Z,39.60
2018-02-14T21:30:53.498Z,37.90
2018-02-14T21:33:22.655Z,40.17
2018-02-14T21:35:51.810Z,38.37
2018-02-14T21:38:20.993Z,42.83
2018-02-14T21:40:50.129Z,42.00
2018-02-14T21:43:19.266Z,43.37
2018-02-14T21:45:48.437Z,60.63
2018-02-14T21:48:17.577Z,46.67
2018-02-14T21:50:46.709Z,38.70
2018-02-14T21:53:15.893Z,44.30
2018-02-14T21:55:45.047Z,42.03
2018-02-14T21:58:14.252Z,44.03
2018-02-14T22:00:43.395Z,35.90
2018-02-14T22:03:12.559Z,43.80
2018-02-14T22:05:41.738Z,39.70
2018-02-14T22:08:10.908Z,48.90
2018-02-14T22:10:40.044Z,49.33
2018-02-14T22:13:09.180Z,38.77
2018-02-14T22:15:38.374Z,38.63
2018-02-14T22:18:07.539Z,57.20
2018-02-14T22:20:36.713Z,45.93
2018-02-14T22:23:06.308Z,43.90
2018-02-14T22:25:35.470Z,46.80
2018-02-14T22:28:04.629Z,58.10
2018-02-14T22:30:33.793Z,41.73
2018-02-14T22:33:02.932Z,39.50
2018-02-14T22:35:32.089Z,43.43
2018-02-14T22:38:01.270Z,57.87
2018-02-14T22:40:30.403Z,52.13
2018-02-14T22:42:59.558Z,37.53
2018-02-14T22:45:28.757Z,43.53
2018-02-14T22:47:57.909Z,45.30
2018-02-14T22:50:27.054Z,38.77
2018-02-14T22:52:56.218Z,38.20
2018-02-14T22:55:25.366Z,49.20
2018-02-14T22:57:54.523Z,38.47
2018-02-14T23:00:23.723Z,37.50
2018-02-14T23:02:52.897Z,38.37
2018-02-14T23:05:22.057Z,41.47
2018-02-14T23:07:51.229Z,44.60
2018-02-14T23:10:20.364Z,36.53
2018-02-14T23:12:49.553Z,40.60
2018-02-14T23:15:18.734Z,36.00
2018-02-14T23:17:47.881Z,38.40
2018-02-14T23:20:17.042Z,39.40
2018-02-14T23:22:46.209Z,52.43
2018-02-14T23:25:15.351Z,42.23
2018-02-14T23:27:44.501Z,40.30
2018-02-14T23:30:13.694Z,43.97
2018-02-14T23:32:42.867Z,51.23
2018-02-14T23:35:12.040Z,38.73
2018-02-14T23:37:41.185Z,37.50
2018-02-14T23:40:10.329Z,42.40
2018-02-14T23:42:39.505Z,38.53
2018-02-14T23:45:08.677Z,40.87
2018-02-14T23:47:37.810Z,36.13
2018-02-14T23:50:06.998Z,37.43
2018-02-14T23:52:36.134Z,46.67
2018-02-14T23:55:05.274Z,36.47
2018-02-14T23:57:34.441Z,37.07
